Current Weather

Gary/Chicago Intl

Gary, Indiana (KGYY)

Report from: Wednesday, September 28, 2022 4:45 AM CDT
Current time: Wednesday, September 28, 2022 5:22 AM CDT

Nearby weather
Weather history
Weather forecast

Present weatherRain
Temperature9.0°C (48.2°F)
Wind chill7.6°C (45.7°F)
Dew point8.0°C (46.4°F)
Winds 5 kts (2.6 m/s, 5.8 mph) West-Northwest (300°)
Visibility7 mi. (11.3 km)
Clouds Ceiling: Overcast 3,000 ft. (914 m)
Altimeter30.33 in.Hg (1027 mB)
Relative humidity93 %
Density altitude-1,034 ft. (-315 m)
Flight conditions Visual Meteorological Conditions
Raw dataKGYY 280945Z 30005KT 7SM RA OVC030 09/08 A3033
An error has occurred. This application may no longer respond until reloaded. Reload 🗙